Napoles — 5BGU4 — position and weather

sailwx.info

Track history (hours):
 
Tides and Currents Weather Stations Pressure Air Temp Water Temp Dewpoint Dewpoint Depression Visibility Wind Speed Wind Dir Waves Ship Positions

Napoles

Last reported at 2017-Oct-17 14:04 UTC. Time now 2017-Oct-17 22:30 UTC.
Position N 38°51' E 001°13'.

Length 186 m; draft 6.5 m.

Type: Ship. MMSI: 209106000.

Date/timePositionNaut miles runAvg speedWind from/ knotsBaromVisibWave heightAir tempDewpointWater temp
2017-Oct-17 14:04N 38°51' E 001°13'521.3
2017-Oct-17 13:50N 38°49' E 001°19'616.5
2017-Oct-17 13:30N 38°49' E 001°26'510.5
2017-Oct-17 13:00N 38°54' E 001°27'0 0.0
2017-Oct-17 12:28N 38°54' E 001°27'0 0.0
2017-Oct-17 12:00N 38°54' E 001°27'1 2.6
2017-Oct-17 11:30N 38°54' E 001°29'4621.2
2017-Oct-17 09:19N 39°19' E 002°19'721.6
2017-Oct-17 09:00N 39°22' E 002°26'1121.1
2017-Oct-17 08:30N 39°30' E 002°36'4 7.0
2017-Oct-17 08:00N 39°33' E 002°38'0 0.0
2017-Oct-17 07:30N 39°33' E 002°38'0 0.0
2017-Oct-17 07:00N 39°33' E 002°38'5913.3
2017-Oct-17 02:32N 38°57' E 001°37'121.0
2017-Oct-17 02:29N 38°57' E 001°36'714.9
2017-Oct-17 02:01N 38°54' E 001°27'0 0.0
2017-Oct-17 01:30N 38°54' E 001°27'1 1.5
2017-Oct-17 01:01N 38°54' E 001°27'1 0.1
2017-Oct-16 12:25N 38°54' E 001°27'0 0.0
2017-Oct-16 12:00N 38°54' E 001°27'1 1.9
2017-Oct-16 11:29N 38°54' E 001°28'1020.5
2017-Oct-16 11:00N 38°59' E 001°38'3721.4
2017-Oct-16 09:16N 39°19' E 002°19'621.8
2017-Oct-16 09:00N 39°22' E 002°25'1021.2
2017-Oct-16 08:30N 39°29' E 002°35'5 9.4
2017-Oct-16 08:00N 39°33' E 002°38'0 0.0
2017-Oct-16 07:30N 39°33' E 002°38'0 0.0
2017-Oct-16 07:00N 39°33' E 002°38'0 0.0
2017-Oct-16 06:30N 39°33' E 002°38'0 0.0
2017-Oct-16 06:00N 39°33' E 002°38'0 0.0
2017-Oct-16 05:30N 39°33' E 002°38'0 0.0
2017-Oct-16 05:00N 39°33' E 002°38'0 0.0
2017-Oct-16 04:30N 39°33' E 002°38'0 0.0
2017-Oct-16 04:00N 39°33' E 002°38'0 0.0
2017-Oct-16 03:30N 39°33' E 002°38'0 0.0
2017-Oct-16 03:00N 39°33' E 002°38'0 0.0
2017-Oct-16 02:30N 39°33' E 002°38'0 0.0
2017-Oct-16 02:00N 39°33' E 002°38'0 0.9
2017-Oct-16 01:30N 39°33' E 002°39'918.3
2017-Oct-16 01:00N 39°25' E 002°32'5421.1
2017-Oct-15 22:27N 38°56' E 001°34'612.8
2017-Oct-15 22:00N 38°54' E 001°27'0 0.0
2017-Oct-15 21:29N 38°54' E 001°27'2 3.4
2017-Oct-15 21:00N 38°53' E 001°27'12 0.4
2017-Oct-14 13:48N 38°50' E 001°12'921.5
2017-Oct-14 13:22N 38°48' E 001°23'514.9
2017-Oct-14 13:00N 38°53' E 001°27'2 3.0
2017-Oct-14 12:30N 38°54' E 001°27'0 0.0
2017-Oct-14 11:59N 38°54' E 001°27'1 2.0
2017-Oct-14 11:28N 38°54' E 001°28'1020.9
2017-Oct-14 10:59N 38°59' E 001°40'3521.5
2017-Oct-14 09:20N 39°18' E 002°18'721.6
2017-Oct-14 09:00N 39°22' E 002°26'1121.5
2017-Oct-14 08:30N 39°29' E 002°36'4 8.3
2017-Oct-14 08:00N 39°33' E 002°38'0 0.0
2017-Oct-14 07:30N 39°33' E 002°38'0 0.0
2017-Oct-14 07:00N 39°33' E 002°38'0 0.0
2017-Oct-14 06:30N 39°33' E 002°38'0 0.0
2017-Oct-14 06:00N 39°33' E 002°38'0 0.5
2017-Oct-14 05:30N 39°33' E 002°38'5 9.6
2017-Oct-14 05:00N 39°29' E 002°36'1121.1
2017-Oct-14 04:30N 39°22' E 002°25'4521.5
2017-Oct-14 02:25N 38°57' E 001°37'820.2
2017-Oct-14 02:00N 38°54' E 001°27'1 1.3
2017-Oct-14 01:29N 38°54' E 001°27'0 0.9
2017-Oct-14 01:00N 38°54' E 001°27'8 0.7
2017-Oct-13 13:31N 38°49' E 001°18'321.1
2017-Oct-13 13:22N 38°48' E 001°22'513.5
2017-Oct-13 13:00N 38°52' E 001°27'3 5.3
2017-Oct-13 12:30N 38°54' E 001°27'0 0.0
2017-Oct-13 11:59N 38°54' E 001°27'1 2.2
2017-Oct-13 11:29N 38°54' E 001°28'4721.0
2017-Oct-13 09:16N 39°19' E 002°19'621.4
2017-Oct-13 09:00N 39°21' E 002°25'1021.0
2017-Oct-13 08:30N 39°29' E 002°35'5 9.7
2017-Oct-13 08:00N 39°33' E 002°38'0 0.0
2017-Oct-13 07:30N 39°33' E 002°38'0 0.0
2017-Oct-13 07:00N 39°33' E 002°38'0 0.0
2017-Oct-13 06:30N 39°33' E 002°38'0 0.0
2017-Oct-13 06:00N 39°33' E 002°38'0 0.0
2017-Oct-13 05:30N 39°33' E 002°38'2 4.5
2017-Oct-13 05:00N 39°31' E 002°37'919.0
2017-Oct-13 04:30N 39°24' E 002°29'4920.6
2017-Oct-13 02:09N 38°57' E 001°37'321.7
2017-Oct-13 02:00N 38°55' E 001°33'5 9.5
2017-Oct-13 01:30N 38°54' E 001°27'0 0.0
2017-Oct-13 00:58N 38°54' E 001°27'4 8.2
2017-Oct-13 00:30N 38°51' E 001°27'1016.4
2017-Oct-12 23:53N 38°50' E 001°14'1220.9
2017-Oct-12 23:19N 38°54' E 000°59'11 1.2
2017-Oct-12 13:55N 38°51' E 001°13'920.9
2017-Oct-12 13:29N 38°48' E 001°24'714.2
2017-Oct-12 13:00N 38°54' E 001°27'0 0.3
2017-Oct-12 12:29N 38°54' E 001°27'3 4.7
2017-Oct-12 11:48N 38°55' E 001°31'620.9
2017-Oct-12 11:30N 38°59' E 001°38'4221.0
2017-Oct-12 09:29N 39°21' E 002°24'1021.3
2017-Oct-12 09:00N 39°28' E 002°34'611.8
2017-Oct-12 08:30N 39°33' E 002°38'0 0.0
2017-Oct-12 08:00N 39°33' E 002°38'0 0.0
2017-Oct-12 07:30N 39°33' E 002°38'0 0.0
2017-Oct-12 07:00N 39°33' E 002°38'0 0.0
2017-Oct-12 06:30N 39°33' E 002°38'0 0.0
2017-Oct-12 06:00N 39°33' E 002°38'0 0.1
2017-Oct-12 05:30N 39°33' E 002°38'4 8.7
2017-Oct-12 05:00N 39°29' E 002°36'1021.2
2017-Oct-12 04:30N 39°21' E 002°26'4621.5
2017-Oct-12 02:21N 38°57' E 001°36'720.5
2017-Oct-12 02:00N 38°54' E 001°27'1 1.3
2017-Oct-12 01:29N 38°54' E 001°27'0 0.4
2017-Oct-12 01:00N 38°54' E 001°27'12 0.3
2017-Oct-10 13:37N 38°51' E 001°12'320.9
2017-Oct-10 13:27N 38°49' E 001°17'817.4
2017-Oct-10 13:00N 38°49' E 001°26'510.3
2017-Oct-10 12:29N 38°54' E 001°27'0 0.0
2017-Oct-10 11:59N 38°54' E 001°27'1 2.4
2017-Oct-10 11:29N 38°54' E 001°28'4821.0
2017-Oct-10 09:13N 39°20' E 002°20'421.2
2017-Oct-10 09:00N 39°22' E 002°25'1021.1
2017-Oct-10 08:30N 39°29' E 002°35'5 9.4
2017-Oct-10 08:00N 39°33' E 002°38'0 0.0
2017-Oct-10 07:30N 39°33' E 002°38'0 0.0
2017-Oct-10 07:00N 39°33' E 002°38'0 0.0
2017-Oct-10 06:30N 39°33' E 002°38'0 0.0
2017-Oct-10 06:00N 39°33' E 002°38'0 0.0
2017-Oct-10 05:30N 39°33' E 002°38'2 3.6
2017-Oct-10 05:00N 39°31' E 002°38'918.0
2017-Oct-10 04:30N 39°25' E 002°30'5219.4
2017-Oct-10 01:51N 38°56' E 001°34'618.1
2017-Oct-10 01:30N 38°54' E 001°27'1 1.1
2017-Oct-10 01:00N 38°54' E 001°27'2 5.0
2017-Oct-10 00:30N 38°52' E 001°27'11 1.1
2017-Oct-09 13:48N 38°50' E 001°12'821.1
2017-Oct-09 13:25N 38°48' E 001°22'614.5
2017-Oct-09 13:00N 38°54' E 001°27'1 1.8
2017-Oct-09 12:30N 38°54' E 001°27'0 0.0
2017-Oct-09 11:58N 38°54' E 001°27'1 2.1
2017-Oct-09 11:30N 38°54' E 001°28'5021.0
2017-Oct-09 09:07N 39°20' E 002°23'221.3
2017-Oct-09 09:00N 39°21' E 002°26'1121.1
2017-Oct-09 08:30N 39°29' E 002°35'4 8.9
2017-Oct-09 08:00N 39°33' E 002°38'0 0.0
2017-Oct-09 07:30N 39°33' E 002°38'0 0.0
2017-Oct-09 07:00N 39°33' E 002°38'0 0.0
2017-Oct-09 06:30N 39°33' E 002°38'0 0.0
2017-Oct-09 06:00N 39°33' E 002°38'0 0.1
2017-Oct-09 05:30N 39°33' E 002°38'4 8.2
2017-Oct-09 05:00N 39°29' E 002°36'1020.9
2017-Oct-09 04:30N 39°22' E 002°26'4521.3
2017-Oct-09 02:23N 38°57' E 001°38'820.8
2017-Oct-09 02:00N 38°54' E 001°28'1 2.1
2017-Oct-09 01:29N 38°54' E 001°27'0 0.1
2017-Oct-09 00:59N 38°54' E 001°27'611.9
2017-Oct-09 00:30N 38°49' E 001°26'  
Track history (hours):
 
Tides and Currents Weather Stations Pressure Air Temp Water Temp Dewpoint Dewpoint Depression Visibility Wind Speed Wind Dir Waves Ship Positions

Napoles

Last reported at 2017-Oct-17 14:04 UTC. Time now 2017-Oct-17 22:30 UTC.
Position N 38°51' E 001°13'.

Length 186 m; draft 6.5 m.

Type: Ship. MMSI: 209106000.

Date/timePositionNaut miles runAvg speedWind from/ knotsBaromVisibWave heightAir tempDewpointWater temp
2017-Oct-17 14:04N 38°51' E 001°13'521.3
2017-Oct-17 13:50N 38°49' E 001°19'616.5
2017-Oct-17 13:30N 38°49' E 001°26'510.5
2017-Oct-17 13:00N 38°54' E 001°27'0 0.0
2017-Oct-17 12:28N 38°54' E 001°27'0 0.0
2017-Oct-17 12:00N 38°54' E 001°27'1 2.6
2017-Oct-17 11:30N 38°54' E 001°29'4621.2
2017-Oct-17 09:19N 39°19' E 002°19'721.6
2017-Oct-17 09:00N 39°22' E 002°26'1121.1
2017-Oct-17 08:30N 39°30' E 002°36'4 7.0
2017-Oct-17 08:00N 39°33' E 002°38'0 0.0
2017-Oct-17 07:30N 39°33' E 002°38'0 0.0
2017-Oct-17 07:00N 39°33' E 002°38'5913.3
2017-Oct-17 02:32N 38°57' E 001°37'121.0
2017-Oct-17 02:29N 38°57' E 001°36'714.9
2017-Oct-17 02:01N 38°54' E 001°27'0 0.0
2017-Oct-17 01:30N 38°54' E 001°27'1 1.5
2017-Oct-17 01:01N 38°54' E 001°27'1 0.1
2017-Oct-16 12:25N 38°54' E 001°27'0 0.0
2017-Oct-16 12:00N 38°54' E 001°27'1 1.9
2017-Oct-16 11:29N 38°54' E 001°28'1020.5
2017-Oct-16 11:00N 38°59' E 001°38'3721.4
2017-Oct-16 09:16N 39°19' E 002°19'621.8
2017-Oct-16 09:00N 39°22' E 002°25'1021.2
2017-Oct-16 08:30N 39°29' E 002°35'5 9.4
2017-Oct-16 08:00N 39°33' E 002°38'0 0.0
2017-Oct-16 07:30N 39°33' E 002°38'0 0.0
2017-Oct-16 07:00N 39°33' E 002°38'0 0.0
2017-Oct-16 06:30N 39°33' E 002°38'0 0.0
2017-Oct-16 06:00N 39°33' E 002°38'0 0.0
2017-Oct-16 05:30N 39°33' E 002°38'0 0.0
2017-Oct-16 05:00N 39°33' E 002°38'0 0.0
2017-Oct-16 04:30N 39°33' E 002°38'0 0.0
2017-Oct-16 04:00N 39°33' E 002°38'0 0.0
2017-Oct-16 03:30N 39°33' E 002°38'0 0.0
2017-Oct-16 03:00N 39°33' E 002°38'0 0.0
2017-Oct-16 02:30N 39°33' E 002°38'0 0.0
2017-Oct-16 02:00N 39°33' E 002°38'0 0.9
2017-Oct-16 01:30N 39°33' E 002°39'918.3
2017-Oct-16 01:00N 39°25' E 002°32'5421.1
2017-Oct-15 22:27N 38°56' E 001°34'612.8
2017-Oct-15 22:00N 38°54' E 001°27'0 0.0
2017-Oct-15 21:29N 38°54' E 001°27'2 3.4
2017-Oct-15 21:00N 38°53' E 001°27'12 0.4
2017-Oct-14 13:48N 38°50' E 001°12'921.5
2017-Oct-14 13:22N 38°48' E 001°23'514.9
2017-Oct-14 13:00N 38°53' E 001°27'2 3.0
2017-Oct-14 12:30N 38°54' E 001°27'0 0.0
2017-Oct-14 11:59N 38°54' E 001°27'1 2.0
2017-Oct-14 11:28N 38°54' E 001°28'1020.9
2017-Oct-14 10:59N 38°59' E 001°40'3521.5
2017-Oct-14 09:20N 39°18' E 002°18'721.6
2017-Oct-14 09:00N 39°22' E 002°26'1121.5
2017-Oct-14 08:30N 39°29' E 002°36'4 8.3
2017-Oct-14 08:00N 39°33' E 002°38'0 0.0
2017-Oct-14 07:30N 39°33' E 002°38'0 0.0
2017-Oct-14 07:00N 39°33' E 002°38'0 0.0
2017-Oct-14 06:30N 39°33' E 002°38'0 0.0
2017-Oct-14 06:00N 39°33' E 002°38'0 0.5
2017-Oct-14 05:30N 39°33' E 002°38'5 9.6
2017-Oct-14 05:00N 39°29' E 002°36'1121.1
2017-Oct-14 04:30N 39°22' E 002°25'4521.5
2017-Oct-14 02:25N 38°57' E 001°37'820.2
2017-Oct-14 02:00N 38°54' E 001°27'1 1.3
2017-Oct-14 01:29N 38°54' E 001°27'0 0.9
2017-Oct-14 01:00N 38°54' E 001°27'8 0.7
2017-Oct-13 13:31N 38°49' E 001°18'321.1
2017-Oct-13 13:22N 38°48' E 001°22'513.5
2017-Oct-13 13:00N 38°52' E 001°27'3 5.3
2017-Oct-13 12:30N 38°54' E 001°27'0 0.0
2017-Oct-13 11:59N 38°54' E 001°27'1 2.2
2017-Oct-13 11:29N 38°54' E 001°28'4721.0
2017-Oct-13 09:16N 39°19' E 002°19'621.4
2017-Oct-13 09:00N 39°21' E 002°25'1021.0
2017-Oct-13 08:30N 39°29' E 002°35'5 9.7
2017-Oct-13 08:00N 39°33' E 002°38'0 0.0
2017-Oct-13 07:30N 39°33' E 002°38'0 0.0
2017-Oct-13 07:00N 39°33' E 002°38'0 0.0
2017-Oct-13 06:30N 39°33' E 002°38'0 0.0
2017-Oct-13 06:00N 39°33' E 002°38'0 0.0
2017-Oct-13 05:30N 39°33' E 002°38'2 4.5
2017-Oct-13 05:00N 39°31' E 002°37'919.0
2017-Oct-13 04:30N 39°24' E 002°29'4920.6
2017-Oct-13 02:09N 38°57' E 001°37'321.7
2017-Oct-13 02:00N 38°55' E 001°33'5 9.5
2017-Oct-13 01:30N 38°54' E 001°27'0 0.0
2017-Oct-13 00:58N 38°54' E 001°27'4 8.2
2017-Oct-13 00:30N 38°51' E 001°27'1016.4
2017-Oct-12 23:53N 38°50' E 001°14'1220.9
2017-Oct-12 23:19N 38°54' E 000°59'11 1.2
2017-Oct-12 13:55N 38°51' E 001°13'920.9
2017-Oct-12 13:29N 38°48' E 001°24'714.2
2017-Oct-12 13:00N 38°54' E 001°27'0 0.3
2017-Oct-12 12:29N 38°54' E 001°27'3 4.7
2017-Oct-12 11:48N 38°55' E 001°31'620.9
2017-Oct-12 11:30N 38°59' E 001°38'4221.0
2017-Oct-12 09:29N 39°21' E 002°24'1021.3
2017-Oct-12 09:00N 39°28' E 002°34'611.8
2017-Oct-12 08:30N 39°33' E 002°38'0 0.0
2017-Oct-12 08:00N 39°33' E 002°38'0 0.0
2017-Oct-12 07:30N 39°33' E 002°38'0 0.0
2017-Oct-12 07:00N 39°33' E 002°38'0 0.0
2017-Oct-12 06:30N 39°33' E 002°38'0 0.0
2017-Oct-12 06:00N 39°33' E 002°38'0 0.1
2017-Oct-12 05:30N 39°33' E 002°38'4 8.7
2017-Oct-12 05:00N 39°29' E 002°36'1021.2
2017-Oct-12 04:30N 39°21' E 002°26'4621.5
2017-Oct-12 02:21N 38°57' E 001°36'720.5
2017-Oct-12 02:00N 38°54' E 001°27'1 1.3
2017-Oct-12 01:29N 38°54' E 001°27'0 0.4
2017-Oct-12 01:00N 38°54' E 001°27'12 0.3
2017-Oct-10 13:37N 38°51' E 001°12'320.9
2017-Oct-10 13:27N 38°49' E 001°17'817.4
2017-Oct-10 13:00N 38°49' E 001°26'510.3
2017-Oct-10 12:29N 38°54' E 001°27'0 0.0
2017-Oct-10 11:59N 38°54' E 001°27'1 2.4
2017-Oct-10 11:29N 38°54' E 001°28'4821.0
2017-Oct-10 09:13N 39°20' E 002°20'421.2
2017-Oct-10 09:00N 39°22' E 002°25'1021.1
2017-Oct-10 08:30N 39°29' E 002°35'5 9.4
2017-Oct-10 08:00N 39°33' E 002°38'0 0.0
2017-Oct-10 07:30N 39°33' E 002°38'0 0.0
2017-Oct-10 07:00N 39°33' E 002°38'0 0.0
2017-Oct-10 06:30N 39°33' E 002°38'0 0.0
2017-Oct-10 06:00N 39°33' E 002°38'0 0.0
2017-Oct-10 05:30N 39°33' E 002°38'2 3.6
2017-Oct-10 05:00N 39°31' E 002°38'918.0
2017-Oct-10 04:30N 39°25' E 002°30'5219.4
2017-Oct-10 01:51N 38°56' E 001°34'618.1
2017-Oct-10 01:30N 38°54' E 001°27'1 1.1
2017-Oct-10 01:00N 38°54' E 001°27'2 5.0
2017-Oct-10 00:30N 38°52' E 001°27'11 1.1
2017-Oct-09 13:48N 38°50' E 001°12'821.1
2017-Oct-09 13:25N 38°48' E 001°22'614.5
2017-Oct-09 13:00N 38°54' E 001°27'1 1.8
2017-Oct-09 12:30N 38°54' E 001°27'0 0.0
2017-Oct-09 11:58N 38°54' E 001°27'1 2.1
2017-Oct-09 11:30N 38°54' E 001°28'5021.0
2017-Oct-09 09:07N 39°20' E 002°23'221.3
2017-Oct-09 09:00N 39°21' E 002°26'1121.1
2017-Oct-09 08:30N 39°29' E 002°35'4 8.9
2017-Oct-09 08:00N 39°33' E 002°38'0 0.0
2017-Oct-09 07:30N 39°33' E 002°38'0 0.0
2017-Oct-09 07:00N 39°33' E 002°38'0 0.0
2017-Oct-09 06:30N 39°33' E 002°38'0 0.0
2017-Oct-09 06:00N 39°33' E 002°38'0 0.1
2017-Oct-09 05:30N 39°33' E 002°38'4 8.2
2017-Oct-09 05:00N 39°29' E 002°36'1020.9
2017-Oct-09 04:30N 39°22' E 002°26'4521.3
2017-Oct-09 02:23N 38°57' E 001°38'820.8
2017-Oct-09 02:00N 38°54' E 001°28'1 2.1
2017-Oct-09 01:29N 38°54' E 001°27'0 0.1
2017-Oct-09 00:59N 38°54' E 001°27'611.9
2017-Oct-09 00:30N 38°49' E 001°26'  

Dump ship's entire track history